sensor_id;sensor_type;location;lat;lon;timestamp;pressure;altitude;pressure_sealevel;temperature;humidity
23953;BME280;12163;49.316;6.092;2024-01-10T00:00:34;100333.94;;;-0.19;45.71
23953;BME280;12163;49.316;6.092;2024-01-10T00:03:00;100328.03;;;-0.21;45.97
23953;BME280;12163;49.316;6.092;2024-01-10T00:05:27;100332.91;;;-0.24;46.05
23953;BME280;12163;49.316;6.092;2024-01-10T00:07:54;100335.34;;;-0.23;46.17
23953;BME280;12163;49.316;6.092;2024-01-10T00:10:21;100329.41;;;-0.25;45.88
23953;BME280;12163;49.316;6.092;2024-01-10T00:12:50;100322.47;;;-0.26;46.25
23953;BME280;12163;49.316;6.092;2024-01-10T00:15:16;100331.44;;;-0.27;45.65
23953;BME280;12163;49.316;6.092;2024-01-10T00:17:43;100329.81;;;-0.28;46.03
23953;BME280;12163;49.316;6.092;2024-01-10T00:20:10;100328.78;;;-0.27;46.06
23953;BME280;12163;49.316;6.092;2024-01-10T00:22:36;100334.09;;;-0.27;46.06
23953;BME280;12163;49.316;6.092;2024-01-10T00:25:03;100330.63;;;-0.27;45.79
23953;BME280;12163;49.316;6.092;2024-01-10T00:27:30;100332.47;;;-0.28;45.75
23953;BME280;12163;49.316;6.092;2024-01-10T00:29:57;100323.88;;;-0.30;46.38
23953;BME280;12163;49.316;6.092;2024-01-10T00:32:24;100326.53;;;-0.30;46.17
23953;BME280;12163;49.316;6.092;2024-01-10T00:34:51;100319.41;;;-0.29;46.70
23953;BME280;12163;49.316;6.092;2024-01-10T00:37:17;100321.22;;;-0.30;46.08
23953;BME280;12163;49.316;6.092;2024-01-10T00:39:44;100319.38;;;-0.36;46.58
23953;BME280;12163;49.316;6.092;2024-01-10T00:42:10;100312.00;;;-0.40;46.33
23953;BME280;12163;49.316;6.092;2024-01-10T00:44:37;100303.44;;;-0.42;46.48
23953;BME280;12163;49.316;6.092;2024-01-10T00:47:03;100309.16;;;-0.39;46.42
23953;BME280;12163;49.316;6.092;2024-01-10T00:49:30;100301.44;;;-0.34;46.91
23953;BME280;12163;49.316;6.092;2024-01-10T00:51:56;100310.84;;;-0.31;46.34
23953;BME280;12163;49.316;6.092;2024-01-10T00:54:23;100305.09;;;-0.35;46.04
23953;BME280;12163;49.316;6.092;2024-01-10T00:56:49;100308.78;;;-0.36;46.42
23953;BME280;12163;49.316;6.092;2024-01-10T00:59:17;100304.72;;;-0.32;45.62
23953;BME280;12163;49.316;6.092;2024-01-10T01:01:43;100310.00;;;-0.32;46.17
23953;BME280;12163;49.316;6.092;2024-01-10T01:04:10;100307.34;;;-0.32;45.09
23953;BME280;12163;49.316;6.092;2024-01-10T01:06:36;100309.59;;;-0.29;45.44
23953;BME280;12163;49.316;6.092;2024-01-10T01:09:03;100307.97;;;-0.30;45.29
23953;BME280;12163;49.316;6.092;2024-01-10T01:11:30;100311.25;;;-0.28;45.75
23953;BME280;12163;49.316;6.092;2024-01-10T01:13:56;100302.28;;;-0.27;45.10
23953;BME280;12163;49.316;6.092;2024-01-10T01:16:23;100308.81;;;-0.23;44.88
23953;BME280;12163;49.316;6.092;2024-01-10T01:18:49;100298.19;;;-0.23;45.38
23953;BME280;12163;49.316;6.092;2024-01-10T01:21:16;100294.16;;;-0.19;45.29
23953;BME280;12163;49.316;6.092;2024-01-10T01:23:43;100308.66;;;-0.15;44.95
23953;BME280;12163;49.316;6.092;2024-01-10T01:26:10;100305.38;;;-0.17;44.65
23953;BME280;12163;49.316;6.092;2024-01-10T01:28:37;100312.34;;;-0.16;44.60
23953;BME280;12163;49.316;6.092;2024-01-10T01:31:03;100311.72;;;-0.18;44.89
23953;BME280;12163;49.316;6.092;2024-01-10T01:33:30;100319.66;;;-0.18;44.61
23953;BME280;12163;49.316;6.092;2024-01-10T01:35:57;100311.72;;;-0.18;44.45
23953;BME280;12163;49.316;6.092;2024-01-10T01:38:24;100306.81;;;-0.21;44.29
23953;BME280;12163;49.316;6.092;2024-01-10T01:40:51;100306.81;;;-0.21;44.64
23953;BME280;12163;49.316;6.092;2024-01-10T01:43:27;100299.88;;;-0.22;44.76
23953;BME280;12163;49.316;6.092;2024-01-10T01:45:55;100293.16;;;-0.18;44.16
23953;BME280;12163;49.316;6.092;2024-01-10T01:48:23;100297.44;;;-0.17;44.67
23953;BME280;12163;49.316;6.092;2024-01-10T01:50:54;100294.16;;;-0.19;44.27
23953;BME280;12163;49.316;6.092;2024-01-10T01:53:22;100302.94;;;-0.18;44.09
23953;BME280;12163;49.316;6.092;2024-01-10T01:55:50;100300.88;;;-0.16;44.18
23953;BME280;12163;49.316;6.092;2024-01-10T01:58:16;100292.94;;;-0.16;44.06
23953;BME280;12163;49.316;6.092;2024-01-10T02:00:44;100303.97;;;-0.13;44.13
23953;BME280;12163;49.316;6.092;2024-01-10T02:03:10;100301.75;;;-0.09;44.04
23953;BME280;12163;49.316;6.092;2024-01-10T02:05:37;100292.56;;;-0.07;43.92
23953;BME280;12163;49.316;6.092;2024-01-10T02:08:04;100301.13;;;-0.05;43.70
23953;BME280;12163;49.316;6.092;2024-01-10T02:10:31;100302.78;;;-0.04;43.50
23953;BME280;12163;49.316;6.092;2024-01-10T02:12:58;100306.25;;;-0.03;43.43
23953;BME280;12163;49.316;6.092;2024-01-10T02:15:25;100299.94;;;-0.03;43.58
23953;BME280;12163;49.316;6.092;2024-01-10T02:17:51;100298.72;;;0.00;43.61
23953;BME280;12163;49.316;6.092;2024-01-10T02:20:18;100291.34;;;-0.04;43.37
23953;BME280;12163;49.316;6.092;2024-01-10T02:22:47;100291.34;;;-0.04;43.83
23953;BME280;12163;49.316;6.092;2024-01-10T02:25:13;100288.88;;;-0.06;43.52
23953;BME280;12163;49.316;6.092;2024-01-10T02:27:41;100289.28;;;-0.09;43.97
23953;BME280;12163;49.316;6.092;2024-01-10T02:30:08;100291.94;;;-0.09;44.09
23953;BME280;12163;49.316;6.092;2024-01-10T02:32:35;100297.69;;;-0.05;44.50
23953;BME280;12163;49.316;6.092;2024-01-10T02:35:04;100306.03;;;-0.02;44.24
23953;BME280;12163;49.316;6.092;2024-01-10T02:37:31;100302.00;;;0.02;44.04
23953;BME280;12163;49.316;6.092;2024-01-10T02:39:57;100305.44;;;0.02;44.08
23953;BME280;12163;49.316;6.092;2024-01-10T02:42:24;100304.44;;;0.03;43.90
23953;BME280;12163;49.316;6.092;2024-01-10T02:44:50;100301.59;;;0.05;44.44
23953;BME280;12163;49.316;6.092;2024-01-10T02:47:17;100299.13;;;0.03;44.21
23953;BME280;12163;49.316;6.092;2024-01-10T02:49:44;100294.66;;;0.04;44.02
23953;BME280;12163;49.316;6.092;2024-01-10T02:52:10;100295.06;;;0.01;44.13
23953;BME280;12163;49.316;6.092;2024-01-10T02:54:37;100289.75;;;0.01;43.77
23953;BME280;12163;49.316;6.092;2024-01-10T02:57:03;100289.50;;;-0.04;43.90
23953;BME280;12163;49.316;6.092;2024-01-10T02:59:30;100290.53;;;-0.05;44.50
23953;BME280;12163;49.316;6.092;2024-01-10T03:01:57;100283.59;;;-0.06;44.28
23953;BME280;12163;49.316;6.092;2024-01-10T03:04:23;100284.41;;;-0.05;44.11
23953;BME280;12163;49.316;6.092;2024-01-10T03:06:50;100275.84;;;-0.01;44.42
23953;BME280;12163;49.316;6.092;2024-01-10T03:09:16;100281.97;;;-0.01;44.47
23953;BME280;12163;49.316;6.092;2024-01-10T03:11:43;100281.97;;;-0.01;44.77
23953;BME280;12163;49.316;6.092;2024-01-10T03:14:10;100269.72;;;-0.02;44.54
23953;BME280;12163;49.316;6.092;2024-01-10T03:16:37;100277.50;;;0.00;44.50
23953;BME280;12163;49.316;6.092;2024-01-10T03:19:04;100265.88;;;0.01;44.53
23953;BME280;12163;49.316;6.092;2024-01-10T03:21:31;100266.06;;;-0.01;44.39
23953;BME280;12163;49.316;6.092;2024-01-10T03:24:01;100266.50;;;0.03;44.30
23953;BME280;12163;49.316;6.092;2024-01-10T03:26:28;100269.72;;;-0.02;44.46
23953;BME280;12163;49.316;6.092;2024-01-10T03:28:56;100267.47;;;-0.04;44.84
23953;BME280;12163;49.316;6.092;2024-01-10T03:31:23;100274.22;;;-0.02;44.68
23953;BME280;12163;49.316;6.092;2024-01-10T03:33:50;100275.84;;;-0.01;44.60
23953;BME280;12163;49.316;6.092;2024-01-10T03:36:17;100266.91;;;0.00;44.59
23953;BME280;12163;49.316;6.092;2024-01-10T03:38:44;100269.34;;;0.01;44.98
23953;BME280;12163;49.316;6.092;2024-01-10T03:41:18;100267.69;;;0.00;44.35
23953;BME280;12163;49.316;6.092;2024-01-10T03:43:45;100260.72;;;-0.07;44.20
23953;BME280;12163;49.316;6.092;2024-01-10T03:46:12;100269.28;;;-0.11;44.42
23953;BME280;12163;49.316;6.092;2024-01-10T03:48:39;100267.47;;;-0.11;44.31
23953;BME280;12163;49.316;6.092;2024-01-10T03:51:17;100274.41;;;-0.10;44.75
23953;BME280;12163;49.316;6.092;2024-01-10T03:53:45;100272.19;;;-0.06;44.74
23953;BME280;12163;49.316;6.092;2024-01-10T03:56:12;100274.63;;;-0.05;44.85
23953;BME280;12163;49.316;6.092;2024-01-10T03:58:39;100270.94;;;-0.04;44.51
23953;BME280;12163;49.316;6.092;2024-01-10T04:01:07;100262.97;;;-0.04;45.22
23953;BME280;12163;49.316;6.092;2024-01-10T04:03:34;100269.31;;;-0.05;44.63
23953;BME280;12163;49.316;6.092;2024-01-10T04:06:02;100256.66;;;-0.03;44.68
23953;BME280;12163;49.316;6.092;2024-01-10T04:08:28;100256.66;;;-0.03;44.61
23953;BME280;12163;49.316;6.092;2024-01-10T04:10:55;100251.34;;;-0.03;44.79
23953;BME280;12163;49.316;6.092;2024-01-10T04:13:22;100253.63;;;0.00;44.49
23953;BME280;12163;49.316;6.092;2024-01-10T04:15:48;100247.69;;;-0.02;44.99
23953;BME280;12163;49.316;6.092;2024-01-10T04:18:15;100250.75;;;0.01;45.00
23953;BME280;12163;49.316;6.092;2024-01-10T04:20:43;100256.47;;;-0.02;44.38
23953;BME280;12163;49.316;6.092;2024-01-10T04:23:10;100252.63;;;0.01;44.81
23953;BME280;12163;49.316;6.092;2024-01-10T04:25:37;100246.66;;;-0.01;44.68
23953;BME280;12163;49.316;6.092;2024-01-10T04:28:04;100246.28;;;0.02;44.43
23953;BME280;12163;49.316;6.092;2024-01-10T04:30:31;100247.09;;;0.02;44.62
23953;BME280;12163;49.316;6.092;2024-01-10T04:32:58;100244.66;;;0.01;44.39
23953;BME280;12163;49.316;6.092;2024-01-10T04:35:24;100243.63;;;0.02;44.65
23953;BME280;12163;49.316;6.092;2024-01-10T04:37:51;100245.25;;;0.03;44.56
23953;BME280;12163;49.316;6.092;2024-01-10T04:40:18;100239.56;;;0.06;44.61
23953;BME280;12163;49.316;6.092;2024-01-10T04:42:44;100239.56;;;0.06;44.23
23953;BME280;12163;49.316;6.092;2024-01-10T04:45:11;100241.19;;;0.07;44.71
23953;BME280;12163;49.316;6.092;2024-01-10T04:47:37;100239.16;;;0.09;44.64
23953;BME280;12163;49.316;6.092;2024-01-10T04:50:04;100234.66;;;0.03;44.25
23953;BME280;12163;49.316;6.092;2024-01-10T04:52:34;100243.22;;;0.05;44.84
23953;BME280;12163;49.316;6.092;2024-01-10T04:55:01;100230.56;;;0.07;44.50
23953;BME280;12163;49.316;6.092;2024-01-10T04:57:29;100230.56;;;0.07;44.45
23953;BME280;12163;49.316;6.092;2024-01-10T04:59:56;100232.63;;;0.05;44.63
23953;BME280;12163;49.316;6.092;2024-01-10T05:02:22;100225.69;;;0.04;44.74
23953;BME280;12163;49.316;6.092;2024-01-10T05:04:49;100230.16;;;0.03;44.63
23953;BME280;12163;49.316;6.092;2024-01-10T05:07:16;100222.00;;;0.05;44.87
23953;BME280;12163;49.316;6.092;2024-01-10T05:09:43;100236.28;;;0.04;44.64
23953;BME280;12163;49.316;6.092;2024-01-10T05:12:09;100238.31;;;0.02;44.74
23953;BME280;12163;49.316;6.092;2024-01-10T05:14:36;100236.28;;;0.04;44.77
23953;BME280;12163;49.316;6.092;2024-01-10T05:17:03;100236.91;;;0.06;44.54
23953;BME280;12163;49.316;6.092;2024-01-10T05:19:29;100229.75;;;0.00;44.13
23953;BME280;12163;49.316;6.092;2024-01-10T05:21:56;100234.03;;;0.01;44.72
23953;BME280;12163;49.316;6.092;2024-01-10T05:24:27;100230.38;;;0.02;44.72
23953;BME280;12163;49.316;6.092;2024-01-10T05:26:54;100240.75;;;0.03;44.89
23953;BME280;12163;49.316;6.092;2024-01-10T05:29:20;100241.19;;;0.07;44.96
23953;BME280;12163;49.316;6.092;2024-01-10T05:31:48;100238.94;;;0.10;44.71
23953;BME280;12163;49.316;6.092;2024-01-10T05:34:15;100244.47;;;0.09;44.68
23953;BME280;12163;49.316;6.092;2024-01-10T05:36:43;100236.91;;;0.06;44.37
23953;BME280;12163;49.316;6.092;2024-01-10T05:39:10;100237.31;;;0.03;44.69
23953;BME280;12163;49.316;6.092;2024-01-10T05:41:36;100238.69;;;-0.01;44.18
23953;BME280;12163;49.316;6.092;2024-01-10T05:44:06;100234.19;;;-0.07;44.64
23953;BME280;12163;49.316;6.092;2024-01-10T05:46:32;100235.63;;;-0.11;44.64
23953;BME280;12163;49.316;6.092;2024-01-10T05:48:59;100236.25;;;-0.09;45.07
23953;BME280;12163;49.316;6.092;2024-01-10T05:51:26;100234.19;;;-0.07;44.97
23953;BME280;12163;49.316;6.092;2024-01-10T05:53:52;100234.69;;;0.29;54.15
23953;BME280;12163;49.316;6.092;2024-01-10T05:56:19;100230.22;;;2.01;59.62
23953;BME280;12163;49.316;6.092;2024-01-10T05:58:46;100221.47;;;3.34;54.58
23953;BME280;12163;49.316;6.092;2024-01-10T06:01:12;100213.97;;;3.79;42.53
23953;BME280;12163;49.316;6.092;2024-01-10T06:03:39;100236.44;;;3.35;41.63
23953;BME280;12163;49.316;6.092;2024-01-10T06:06:06;100231.13;;;2.93;40.82
23953;BME280;12163;49.316;6.092;2024-01-10T06:08:33;100231.88;;;2.58;40.70
23953;BME280;12163;49.316;6.092;2024-01-10T06:11:03;100233.53;;;2.21;40.76
23953;BME280;12163;49.316;6.092;2024-01-10T06:13:29;100231.91;;;1.89;41.18
23953;BME280;12163;49.316;6.092;2024-01-10T06:16:14;100235.75;;;1.50;41.40
23953;BME280;12163;49.316;6.092;2024-01-10T06:18:41;100242.78;;;1.25;42.10
23953;BME280;12163;49.316;6.092;2024-01-10T06:21:08;100241.22;;;1.04;42.66
23953;BME280;12163;49.316;6.092;2024-01-10T06:23:34;100245.50;;;0.86;42.93
23953;BME280;12163;49.316;6.092;2024-01-10T06:26:01;100243.91;;;0.78;43.16
23953;BME280;12163;49.316;6.092;2024-01-10T06:28:28;100247.78;;;0.69;43.32
23953;BME280;12163;49.316;6.092;2024-01-10T06:30:54;100247.78;;;0.56;43.39
23953;BME280;12163;49.316;6.092;2024-01-10T06:33:21;100241.22;;;0.52;43.82
23953;BME280;12163;49.316;6.092;2024-01-10T06:35:47;100246.56;;;0.46;43.92
23953;BME280;12163;49.316;6.092;2024-01-10T06:38:14;100251.84;;;0.39;44.21
23953;BME280;12163;49.316;6.092;2024-01-10T06:40:43;100247.78;;;0.43;44.26
23953;BME280;12163;49.316;6.092;2024-01-10T06:43:11;100247.16;;;0.35;43.67
23953;BME280;12163;49.316;6.092;2024-01-10T06:45:37;100242.84;;;0.34;44.10
23953;BME280;12163;49.316;6.092;2024-01-10T06:48:04;100247.38;;;0.33;44.22
23953;BME280;12163;49.316;6.092;2024-01-10T06:50:31;100238.56;;;0.33;44.13
23953;BME280;12163;49.316;6.092;2024-01-10T06:52:57;100252.88;;;0.32;44.72
23953;BME280;12163;49.316;6.092;2024-01-10T06:55:24;100251.84;;;0.33;44.23
23953;BME280;12163;49.316;6.092;2024-01-10T06:57:50;100250.81;;;0.27;44.62
23953;BME280;12163;49.316;6.092;2024-01-10T07:00:21;100256.94;;;0.28;44.79
23953;BME280;12163;49.316;6.092;2024-01-10T07:02:49;100247.13;;;0.22;44.26
23953;BME280;12163;49.316;6.092;2024-01-10T07:05:16;100251.00;;;0.13;44.53
23953;BME280;12163;49.316;6.092;2024-01-10T07:07:43;100253.66;;;0.13;45.03
23953;BME280;12163;49.316;6.092;2024-01-10T07:10:10;100254.03;;;0.10;44.59
23953;BME280;12163;49.316;6.092;2024-01-10T07:12:37;100255.50;;;0.12;44.56
23953;BME280;12163;49.316;6.092;2024-01-10T07:15:04;100260.00;;;0.18;45.29
23953;BME280;12163;49.316;6.092;2024-01-10T07:17:31;100260.78;;;0.19;44.45
23953;BME280;12163;49.316;6.092;2024-01-10T07:19:58;100263.63;;;0.11;44.63
23953;BME280;12163;49.316;6.092;2024-01-10T07:22:25;100260.59;;;0.14;44.85
23953;BME280;12163;49.316;6.092;2024-01-10T07:24:51;100257.13;;;0.20;45.04
23953;BME280;12163;49.316;6.092;2024-01-10T07:27:18;100258.38;;;0.24;45.03
23953;BME280;12163;49.316;6.092;2024-01-10T07:29:45;100260.81;;;0.32;44.88
23953;BME280;12163;49.316;6.092;2024-01-10T07:32:12;100262.47;;;0.33;44.75
23953;BME280;12163;49.316;6.092;2024-01-10T07:34:40;100272.06;;;0.34;45.20
23953;BME280;12163;49.316;6.092;2024-01-10T07:37:07;100278.41;;;0.39;45.18
23953;BME280;12163;49.316;6.092;2024-01-10T07:39:35;100280.44;;;0.37;45.09
23953;BME280;12163;49.316;6.092;2024-01-10T07:42:02;100279.41;;;0.38;45.12
23953;BME280;12163;49.316;6.092;2024-01-10T07:44:29;100283.50;;;0.34;44.74
23953;BME280;12163;49.316;6.092;2024-01-10T07:46:56;100287.78;;;0.35;45.29
23953;BME280;12163;49.316;6.092;2024-01-10T07:49:22;100291.88;;;0.38;44.69
23953;BME280;12163;49.316;6.092;2024-01-10T07:51:50;100284.72;;;0.38;45.10
23953;BME280;12163;49.316;6.092;2024-01-10T07:54:17;100293.09;;;0.42;45.25
23953;BME280;12163;49.316;6.092;2024-01-10T07:56:44;100286.56;;;0.44;45.46
23953;BME280;12163;49.316;6.092;2024-01-10T07:59:10;100297.78;;;0.40;45.07
23953;BME280;12163;49.316;6.092;2024-01-10T08:01:44;100294.94;;;0.35;45.12
23953;BME280;12163;49.316;6.092;2024-01-10T08:04:20;100295.94;;;0.34;45.79
23953;BME280;12163;49.316;6.092;2024-01-10T08:06:47;100293.91;;;0.36;45.55
23953;BME280;12163;49.316;6.092;2024-01-10T08:09:13;100297.78;;;0.40;45.52
23953;BME280;12163;49.316;6.092;2024-01-10T08:11:40;100299.66;;;0.46;45.43
23953;BME280;12163;49.316;6.092;2024-01-10T08:14:07;100305.34;;;0.49;45.18
23953;BME280;12163;49.316;6.092;2024-01-10T08:16:34;100298.84;;;0.52;45.25
23953;BME280;12163;49.316;6.092;2024-01-10T08:19:01;100300.06;;;0.56;45.06
23953;BME280;12163;49.316;6.092;2024-01-10T08:21:28;100302.31;;;0.59;45.25
23953;BME280;12163;49.316;6.092;2024-01-10T08:23:55;100299.66;;;0.59;45.05
23953;BME280;12163;49.316;6.092;2024-01-10T08:26:21;100300.47;;;0.59;44.87
23953;BME280;12163;49.316;6.092;2024-01-10T08:28:48;100305.78;;;0.66;45.15
23953;BME280;12163;49.316;6.092;2024-01-10T08:31:18;100303.34;;;0.71;45.11
23953;BME280;12163;49.316;6.092;2024-01-10T08:33:45;100306.00;;;0.71;44.66
23953;BME280;12163;49.316;6.092;2024-01-10T08:36:13;100303.75;;;0.68;44.58
23953;BME280;12163;49.316;6.092;2024-01-10T08:38:41;100307.44;;;0.67;44.79
23953;BME280;12163;49.316;6.092;2024-01-10T08:41:08;100298.03;;;0.71;44.92
23953;BME280;12163;49.316;6.092;2024-01-10T08:43:38;100294.75;;;0.75;44.89
23953;BME280;12163;49.316;6.092;2024-01-10T08:46:05;100304.75;;;0.73;44.81
23953;BME280;12163;49.316;6.092;2024-01-10T08:48:32;100299.25;;;0.75;44.44
23953;BME280;12163;49.316;6.092;2024-01-10T08:50:58;100293.13;;;0.81;44.67
23953;BME280;12163;49.316;6.092;2024-01-10T08:53:25;100290.06;;;0.84;44.74
23953;BME280;12163;49.316;6.092;2024-01-10T08:55:51;100289.66;;;0.87;44.69
23953;BME280;12163;49.316;6.092;2024-01-10T08:58:18;100291.09;;;0.96;44.46
23953;BME280;12163;49.316;6.092;2024-01-10T09:00:44;100284.53;;;0.98;44.56
23953;BME280;12163;49.316;6.092;2024-01-10T09:03:11;100279.22;;;1.05;44.45
23953;BME280;12163;49.316;6.092;2024-01-10T09:05:38;100284.94;;;1.02;44.00
23953;BME280;12163;49.316;6.092;2024-01-10T09:08:05;100278.41;;;0.98;43.90
23953;BME280;12163;49.316;6.092;2024-01-10T09:10:32;100282.94;;;0.91;44.14
23953;BME280;12163;49.316;6.092;2024-01-10T09:12:59;100286.59;;;0.90;44.13
23953;BME280;12163;49.316;6.092;2024-01-10T09:15:25;100290.47;;;0.87;44.07
23953;BME280;12163;49.316;6.092;2024-01-10T09:17:52;100292.72;;;0.84;44.17
23953;BME280;12163;49.316;6.092;2024-01-10T09:20:19;100297.63;;;0.80;43.94
23953;BME280;12163;49.316;6.092;2024-01-10T09:22:47;100300.28;;;0.80;44.20
23953;BME280;12163;49.316;6.092;2024-01-10T09:25:15;100298.44;;;0.74;43.96
23953;BME280;12163;49.316;6.092;2024-01-10T09:27:42;100301.31;;;0.73;44.77
23953;BME280;12163;49.316;6.092;2024-01-10T09:30:11;100307.84;;;0.77;44.64
23953;BME280;12163;49.316;6.092;2024-01-10T09:32:37;100311.53;;;0.76;44.44
23953;BME280;12163;49.316;6.092;2024-01-10T09:35:05;100306.22;;;0.76;44.59
23953;BME280;12163;49.316;6.092;2024-01-10T09:37:31;100305.38;;;0.75;44.75
23953;BME280;12163;49.316;6.092;2024-01-10T09:39:58;100311.72;;;0.81;44.94
23953;BME280;12163;49.316;6.092;2024-01-10T09:42:25;100324.22;;;0.80;44.44
23953;BME280;12163;49.316;6.092;2024-01-10T09:44:52;100327.47;;;0.82;44.83
23953;BME280;12163;49.316;6.092;2024-01-10T09:47:20;100316.44;;;0.85;44.58
23953;BME280;12163;49.316;6.092;2024-01-10T09:49:47;100325.44;;;0.91;44.69
23953;BME280;12163;49.316;6.092;2024-01-10T09:52:23;100322.56;;;0.86;44.18
23953;BME280;12163;49.316;6.092;2024-01-10T09:54:54;100335.22;;;0.84;44.61
23953;BME280;12163;49.316;6.092;2024-01-10T09:57:25;100334.81;;;0.80;44.31
23953;BME280;12163;49.316;6.092;2024-01-10T09:59:53;100330.31;;;0.74;44.58
23953;BME280;12163;49.316;6.092;2024-01-10T10:02:22;100330.31;;;0.74;44.83
23953;BME280;12163;49.316;6.092;2024-01-10T10:05:08;100334.81;;;0.74;44.70
23953;BME280;12163;49.316;6.092;2024-01-10T10:10:15;100327.66;;;0.81;44.92
23953;BME280;12163;49.316;6.092;2024-01-10T10:12:46;100326.22;;;0.85;44.85
23953;BME280;12163;49.316;6.092;2024-01-10T10:15:18;100327.44;;;0.89;44.65
23953;BME280;12163;49.316;6.092;2024-01-10T10:17:49;100327.47;;;0.95;44.67
23953;BME280;12163;49.316;6.092;2024-01-10T10:20:23;100325.03;;;1.00;44.77
23953;BME280;12163;49.316;6.092;2024-01-10T10:23:00;100324.19;;;1.06;44.54
23953;BME280;12163;49.316;6.092;2024-01-10T10:27:56;100338.53;;;1.12;44.83
23953;BME280;12163;49.316;6.092;2024-01-10T10:30:22;100331.16;;;1.14;44.18
23953;BME280;12163;49.316;6.092;2024-01-10T10:32:49;100331.16;;;1.14;44.36
23953;BME280;12163;49.316;6.092;2024-01-10T10:35:18;100331.34;;;1.19;44.51
23953;BME280;12163;49.316;6.092;2024-01-10T10:38:02;100330.09;;;1.28;44.04
23953;BME280;12163;49.316;6.092;2024-01-10T10:40:29;100323.97;;;1.34;43.94
23953;BME280;12163;49.316;6.092;2024-01-10T10:42:57;100327.44;;;1.41;43.37
23953;BME280;12163;49.316;6.092;2024-01-10T10:45:24;100323.53;;;1.43;43.30
23953;BME280;12163;49.316;6.092;2024-01-10T10:47:57;100332.13;;;1.45;43.44
23953;BME280;12163;49.316;6.092;2024-01-10T10:50:28;100328.22;;;1.48;43.12
23953;BME280;12163;49.316;6.092;2024-01-10T10:52:55;100334.16;;;1.50;43.31
23953;BME280;12163;49.316;6.092;2024-01-10T10:55:26;100334.75;;;1.52;43.27
23953;BME280;12163;49.316;6.092;2024-01-10T10:57:53;100329.66;;;1.57;43.05
23953;BME280;12163;49.316;6.092;2024-01-10T11:00:33;100328.63;;;1.58;42.63
23953;BME280;12163;49.316;6.092;2024-01-10T11:03:01;100328.59;;;1.64;43.30
23953;BME280;12163;49.316;6.092;2024-01-10T11:05:30;100328.56;;;1.70;43.25
23953;BME280;12163;49.316;6.092;2024-01-10T11:07:57;100321.63;;;1.69;43.05
23953;BME280;12163;49.316;6.092;2024-01-10T11:10:28;100314.44;;;1.76;42.96
23953;BME280;12163;49.316;6.092;2024-01-10T11:13:13;100316.28;;;1.82;43.21
23953;BME280;12163;49.316;6.092;2024-01-10T11:21:37;100313.94;;;1.99;42.47
23953;BME280;12163;49.316;6.092;2024-01-10T11:24:08;100322.72;;;1.99;42.85
23953;BME280;12163;49.316;6.092;2024-01-10T11:26:39;100309.66;;;1.98;42.38
23953;BME280;12163;49.316;6.092;2024-01-10T11:29:06;100316.41;;;2.00;42.48
23953;BME280;12163;49.316;6.092;2024-01-10T11:31:32;100310.44;;;2.05;42.45
23953;BME280;12163;49.316;6.092;2024-01-10T11:34:01;100312.03;;;2.12;42.43
23953;BME280;12163;49.316;6.092;2024-01-10T11:36:28;100314.06;;;2.17;42.36
23953;BME280;12163;49.316;6.092;2024-01-10T11:38:59;100305.66;;;2.20;42.26
23953;BME280;12163;49.316;6.092;2024-01-10T11:41:36;100313.22;;;2.23;42.36
23953;BME280;12163;49.316;6.092;2024-01-10T11:46:46;100304.19;;;2.24;42.36
23953;BME280;12163;49.316;6.092;2024-01-10T11:49:15;100299.69;;;2.24;42.69
23953;BME280;12163;49.316;6.092;2024-01-10T11:51:43;100297.41;;;2.28;42.42
23953;BME280;12163;49.316;6.092;2024-01-10T11:54:42;100298.66;;;2.25;41.97
23953;BME280;12163;49.316;6.092;2024-01-10T11:59:43;100289.19;;;2.36;42.48
23953;BME280;12163;49.316;6.092;2024-01-10T12:02:14;100280.75;;;2.39;42.23
23953;BME280;12163;49.316;6.092;2024-01-10T12:04:41;100278.66;;;2.47;42.29
23953;BME280;12163;49.316;6.092;2024-01-10T12:07:15;100273.94;;;2.49;42.58
23953;BME280;12163;49.316;6.092;2024-01-10T12:09:42;100273.06;;;2.55;42.38
23953;BME280;12163;49.316;6.092;2024-01-10T12:12:09;100277.34;;;2.56;42.43
23953;BME280;12163;49.316;6.092;2024-01-10T12:14:37;100267.13;;;2.53;42.26
23953;BME280;12163;49.316;6.092;2024-01-10T12:17:05;100270.00;;;2.52;42.48
23953;BME280;12163;49.316;6.092;2024-01-10T12:19:34;100265.28;;;2.54;42.55
23953;BME280;12163;49.316;6.092;2024-01-10T12:22:05;100267.28;;;2.58;42.29
23953;BME280;12163;49.316;6.092;2024-01-10T12:24:34;100258.06;;;2.61;42.22
23953;BME280;12163;49.316;6.092;2024-01-10T12:27:05;100258.06;;;2.61;41.95
23953;BME280;12163;49.316;6.092;2024-01-10T12:29:31;100264.78;;;2.63;42.35
23953;BME280;12163;49.316;6.092;2024-01-10T12:31:59;100265.19;;;2.67;42.20
23953;BME280;12163;49.316;6.092;2024-01-10T12:34:26;100266.19;;;2.72;42.13
23953;BME280;12163;49.316;6.092;2024-01-10T12:36:54;100269.88;;;2.71;42.22
23953;BME280;12163;49.316;6.092;2024-01-10T12:39:22;100274.75;;;2.74;42.50
23953;BME280;12163;49.316;6.092;2024-01-10T12:41:50;100279.66;;;2.77;42.63
23953;BME280;12163;49.316;6.092;2024-01-10T12:44:17;100282.47;;;2.82;42.13
23953;BME280;12163;49.316;6.092;2024-01-10T12:46:50;100271.81;;;2.82;42.13
23953;BME280;12163;49.316;6.092;2024-01-10T12:49:22;100271.47;;;2.79;42.16
23953;BME280;12163;49.316;6.092;2024-01-10T12:51:49;100264.06;;;2.81;42.41
23953;BME280;12163;49.316;6.092;2024-01-10T12:54:16;100255.81;;;2.82;42.07
23953;BME280;12163;49.316;6.092;2024-01-10T12:56:43;100250.28;;;2.84;42.25
23953;BME280;12163;49.316;6.092;2024-01-10T12:59:10;100260.34;;;2.82;42.25
23953;BME280;12163;49.316;6.092;2024-01-10T13:01:37;100266.66;;;2.87;42.35
23953;BME280;12163;49.316;6.092;2024-01-10T13:04:04;100264.72;;;3.01;42.39
23953;BME280;12163;49.316;6.092;2024-01-10T13:06:34;100269.09;;;3.13;42.34
23953;BME280;12163;49.316;6.092;2024-01-10T13:09:01;100258.72;;;3.23;41.63
23953;BME280;12163;49.316;6.092;2024-01-10T13:11:28;100268.00;;;3.38;41.64
23953;BME280;12163;49.316;6.092;2024-01-10T13:13:56;100262.88;;;3.55;41.34
23953;BME280;12163;49.316;6.092;2024-01-10T13:16:23;100259.88;;;3.69;41.42